sensor_id;sensor_type;location;lat;lon;timestamp;temperature;humidity
40816;DHT22;26535;48.788;9.214;2023-12-22T00:00:37;6.90;99.90
40816;DHT22;26535;48.788;9.214;2023-12-22T00:03:03;6.90;99.90
40816;DHT22;26535;48.788;9.214;2023-12-22T00:05:29;6.80;99.90
40816;DHT22;26535;48.788;9.214;2023-12-22T00:07:54;6.60;99.90
40816;DHT22;26535;48.788;9.214;2023-12-22T00:10:21;6.60;99.90
40816;DHT22;26535;48.788;9.214;2023-12-22T00:12:47;6.60;99.90
40816;DHT22;26535;48.788;9.214;2023-12-22T00:15:12;6.60;99.90
40816;DHT22;26535;48.788;9.214;2023-12-22T00:17:41;6.70;99.90
40816;DHT22;26535;48.788;9.214;2023-12-22T00:20:06;6.70;99.90
40816;DHT22;26535;48.788;9.214;2023-12-22T00:22:34;6.80;99.90
40816;DHT22;26535;48.788;9.214;2023-12-22T00:25:00;6.90;99.90
40816;DHT22;26535;48.788;9.214;2023-12-22T00:27:26;7.00;99.90
40816;DHT22;26535;48.788;9.214;2023-12-22T00:29:52;7.10;99.90
40816;DHT22;26535;48.788;9.214;2023-12-22T00:32:17;7.20;99.90
40816;DHT22;26535;48.788;9.214;2023-12-22T00:34:43;7.20;99.90
40816;DHT22;26535;48.788;9.214;2023-12-22T00:37:17;7.20;99.90
40816;DHT22;26535;48.788;9.214;2023-12-22T00:39:42;7.20;99.90
40816;DHT22;26535;48.788;9.214;2023-12-22T00:45:03;6.50;99.90
40816;DHT22;26535;48.788;9.214;2023-12-22T00:48:04;6.40;99.90
40816;DHT22;26535;48.788;9.214;2023-12-22T00:51:19;6.50;99.90
40816;DHT22;26535;48.788;9.214;2023-12-22T00:53:45;6.60;99.90
40816;DHT22;26535;48.788;9.214;2023-12-22T00:56:11;6.60;99.90
40816;DHT22;26535;48.788;9.214;2023-12-22T00:58:39;6.70;99.90
40816;DHT22;26535;48.788;9.214;2023-12-22T01:01:05;6.60;99.90
40816;DHT22;26535;48.788;9.214;2023-12-22T01:03:31;6.70;99.90
40816;DHT22;26535;48.788;9.214;2023-12-22T01:05:57;6.60;99.90
40816;DHT22;26535;48.788;9.214;2023-12-22T01:08:32;6.70;99.90
40816;DHT22;26535;48.788;9.214;2023-12-22T01:10:59;6.70;99.90
40816;DHT22;26535;48.788;9.214;2023-12-22T01:13:25;6.70;99.90
40816;DHT22;26535;48.788;9.214;2023-12-22T01:15:51;6.70;99.90
40816;DHT22;26535;48.788;9.214;2023-12-22T01:18:20;6.70;99.90
40816;DHT22;26535;48.788;9.214;2023-12-22T01:20:52;6.70;99.90
40816;DHT22;26535;48.788;9.214;2023-12-22T01:23:17;6.80;99.90
40816;DHT22;26535;48.788;9.214;2023-12-22T01:25:43;6.80;99.90
40816;DHT22;26535;48.788;9.214;2023-12-22T01:28:19;6.80;99.90
40816;DHT22;26535;48.788;9.214;2023-12-22T01:30:46;6.80;99.90
40816;DHT22;26535;48.788;9.214;2023-12-22T01:33:11;6.80;99.90
40816;DHT22;26535;48.788;9.214;2023-12-22T01:35:37;6.70;99.90
40816;DHT22;26535;48.788;9.214;2023-12-22T01:38:03;6.80;99.90
40816;DHT22;26535;48.788;9.214;2023-12-22T01:40:31;6.70;99.90
40816;DHT22;26535;48.788;9.214;2023-12-22T01:42:57;6.60;99.90
40816;DHT22;26535;48.788;9.214;2023-12-22T01:45:23;6.60;99.90
40816;DHT22;26535;48.788;9.214;2023-12-22T01:47:49;6.60;99.90
40816;DHT22;26535;48.788;9.214;2023-12-22T01:50:21;6.60;99.90
40816;DHT22;26535;48.788;9.214;2023-12-22T01:52:47;6.60;99.90
40816;DHT22;26535;48.788;9.214;2023-12-22T01:55:22;6.60;99.90
40816;DHT22;26535;48.788;9.214;2023-12-22T01:57:50;6.50;99.90
40816;DHT22;26535;48.788;9.214;2023-12-22T02:00:16;6.50;99.90
40816;DHT22;26535;48.788;9.214;2023-12-22T02:02:42;6.50;99.90
40816;DHT22;26535;48.788;9.214;2023-12-22T02:05:12;6.50;99.90
40816;DHT22;26535;48.788;9.214;2023-12-22T02:07:42;6.50;99.90
40816;DHT22;26535;48.788;9.214;2023-12-22T02:10:11;6.50;99.90
40816;DHT22;26535;48.788;9.214;2023-12-22T02:12:37;6.50;99.90
40816;DHT22;26535;48.788;9.214;2023-12-22T02:15:03;6.50;99.90
40816;DHT22;26535;48.788;9.214;2023-12-22T02:17:39;6.50;99.90
40816;DHT22;26535;48.788;9.214;2023-12-22T02:20:08;6.60;99.90
40816;DHT22;26535;48.788;9.214;2023-12-22T02:22:35;6.60;99.90
40816;DHT22;26535;48.788;9.214;2023-12-22T02:25:04;6.50;99.90
40816;DHT22;26535;48.788;9.214;2023-12-22T02:27:50;6.60;99.90
40816;DHT22;26535;48.788;9.214;2023-12-22T02:30:38;6.60;99.90
40816;DHT22;26535;48.788;9.214;2023-12-22T02:33:05;6.60;99.90
40816;DHT22;26535;48.788;9.214;2023-12-22T02:35:38;6.70;99.90
40816;DHT22;26535;48.788;9.214;2023-12-22T02:41:08;6.60;99.90
40816;DHT22;26535;48.788;9.214;2023-12-22T02:43:34;6.70;99.90
40816;DHT22;26535;48.788;9.214;2023-12-22T02:46:01;6.60;99.90
40816;DHT22;26535;48.788;9.214;2023-12-22T02:48:55;6.80;99.90
40816;DHT22;26535;48.788;9.214;2023-12-22T02:51:21;6.80;99.90
40816;DHT22;26535;48.788;9.214;2023-12-22T02:54:07;6.80;99.90
40816;DHT22;26535;48.788;9.214;2023-12-22T02:56:33;6.70;99.90
40816;DHT22;26535;48.788;9.214;2023-12-22T02:58:58;6.80;99.90
40816;DHT22;26535;48.788;9.214;2023-12-22T03:01:24;6.80;99.90
40816;DHT22;26535;48.788;9.214;2023-12-22T03:03:49;6.80;99.90
40816;DHT22;26535;48.788;9.214;2023-12-22T03:06:15;6.80;99.90
40816;DHT22;26535;48.788;9.214;2023-12-22T03:08:41;7.00;99.90
40816;DHT22;26535;48.788;9.214;2023-12-22T03:11:06;7.20;99.90
40816;DHT22;26535;48.788;9.214;2023-12-22T03:13:32;7.40;99.90
40816;DHT22;26535;48.788;9.214;2023-12-22T03:15:58;7.60;99.90
40816;DHT22;26535;48.788;9.214;2023-12-22T03:18:23;7.70;99.90
40816;DHT22;26535;48.788;9.214;2023-12-22T03:20:49;7.80;99.90
40816;DHT22;26535;48.788;9.214;2023-12-22T03:23:14;7.90;99.90
40816;DHT22;26535;48.788;9.214;2023-12-22T03:25:40;8.10;99.90
40816;DHT22;26535;48.788;9.214;2023-12-22T03:28:06;8.30;99.90
40816;DHT22;26535;48.788;9.214;2023-12-22T03:30:32;8.40;99.90
40816;DHT22;26535;48.788;9.214;2023-12-22T03:32:58;8.50;99.90
40816;DHT22;26535;48.788;9.214;2023-12-22T03:35:33;8.60;99.90
40816;DHT22;26535;48.788;9.214;2023-12-22T03:37:58;8.70;99.90
40816;DHT22;26535;48.788;9.214;2023-12-22T03:40:28;8.70;99.90
40816;DHT22;26535;48.788;9.214;2023-12-22T03:42:54;8.70;99.90
40816;DHT22;26535;48.788;9.214;2023-12-22T03:45:20;8.60;99.90
40816;DHT22;26535;48.788;9.214;2023-12-22T03:47:45;8.60;99.90
40816;DHT22;26535;48.788;9.214;2023-12-22T03:50:11;8.60;99.90
40816;DHT22;26535;48.788;9.214;2023-12-22T03:52:37;8.60;99.90
40816;DHT22;26535;48.788;9.214;2023-12-22T03:55:17;8.60;99.90
40816;DHT22;26535;48.788;9.214;2023-12-22T03:57:43;8.60;99.90
40816;DHT22;26535;48.788;9.214;2023-12-22T04:00:12;8.60;99.90
40816;DHT22;26535;48.788;9.214;2023-12-22T04:02:39;8.50;99.90
40816;DHT22;26535;48.788;9.214;2023-12-22T04:05:05;8.10;99.90
40816;DHT22;26535;48.788;9.214;2023-12-22T04:07:57;7.80;99.90
40816;DHT22;26535;48.788;9.214;2023-12-22T04:10:23;7.40;99.90
40816;DHT22;26535;48.788;9.214;2023-12-22T04:13:09;7.20;99.90
40816;DHT22;26535;48.788;9.214;2023-12-22T04:15:38;7.00;99.90
40816;DHT22;26535;48.788;9.214;2023-12-22T04:18:08;7.00;99.90
40816;DHT22;26535;48.788;9.214;2023-12-22T04:20:34;7.00;99.90
40816;DHT22;26535;48.788;9.214;2023-12-22T04:22:59;6.90;99.90
40816;DHT22;26535;48.788;9.214;2023-12-22T04:25:25;6.80;99.90
40816;DHT22;26535;48.788;9.214;2023-12-22T04:28:06;6.70;99.90
40816;DHT22;26535;48.788;9.214;2023-12-22T04:30:32;6.80;99.90
40816;DHT22;26535;48.788;9.214;2023-12-22T04:36:24;6.90;99.90
40816;DHT22;26535;48.788;9.214;2023-12-22T04:38:52;7.00;99.90
40816;DHT22;26535;48.788;9.214;2023-12-22T04:41:17;7.00;99.90
40816;DHT22;26535;48.788;9.214;2023-12-22T04:43:46;7.20;99.90
40816;DHT22;26535;48.788;9.214;2023-12-22T04:49:07;7.40;99.90
40816;DHT22;26535;48.788;9.214;2023-12-22T04:51:39;7.50;99.90
40816;DHT22;26535;48.788;9.214;2023-12-22T04:58:37;7.50;99.90
40816;DHT22;26535;48.788;9.214;2023-12-22T05:02:00;7.50;99.90
40816;DHT22;26535;48.788;9.214;2023-12-22T05:04:26;7.50;99.90
40816;DHT22;26535;48.788;9.214;2023-12-22T05:07:03;7.40;99.90
40816;DHT22;26535;48.788;9.214;2023-12-22T05:09:33;7.60;99.90
40816;DHT22;26535;48.788;9.214;2023-12-22T05:12:07;7.60;99.90
40816;DHT22;26535;48.788;9.214;2023-12-22T05:14:32;7.80;99.90
40816;DHT22;26535;48.788;9.214;2023-12-22T05:16:59;7.80;99.90
40816;DHT22;26535;48.788;9.214;2023-12-22T05:19:25;7.80;99.90
40816;DHT22;26535;48.788;9.214;2023-12-22T05:21:50;8.00;99.90
40816;DHT22;26535;48.788;9.214;2023-12-22T05:24:18;8.10;99.90
40816;DHT22;26535;48.788;9.214;2023-12-22T05:26:43;8.10;99.90
40816;DHT22;26535;48.788;9.214;2023-12-22T05:29:18;8.10;99.90
40816;DHT22;26535;48.788;9.214;2023-12-22T05:31:59;8.10;99.90
40816;DHT22;26535;48.788;9.214;2023-12-22T05:34:25;8.20;99.90
40816;DHT22;26535;48.788;9.214;2023-12-22T05:36:50;8.30;99.90
40816;DHT22;26535;48.788;9.214;2023-12-22T05:39:16;8.30;99.90
40816;DHT22;26535;48.788;9.214;2023-12-22T05:41:49;8.20;99.90
40816;DHT22;26535;48.788;9.214;2023-12-22T05:44:15;8.10;99.90
40816;DHT22;26535;48.788;9.214;2023-12-22T05:46:41;7.90;99.90
40816;DHT22;26535;48.788;9.214;2023-12-22T05:49:06;7.80;99.90
40816;DHT22;26535;48.788;9.214;2023-12-22T05:51:39;7.80;99.90
40816;DHT22;26535;48.788;9.214;2023-12-22T05:54:11;7.80;99.90
40816;DHT22;26535;48.788;9.214;2023-12-22T05:56:41;7.90;99.90
40816;DHT22;26535;48.788;9.214;2023-12-22T05:59:06;8.00;99.90
40816;DHT22;26535;48.788;9.214;2023-12-22T06:01:35;8.10;99.90
40816;DHT22;26535;48.788;9.214;2023-12-22T06:04:02;8.20;99.90
40816;DHT22;26535;48.788;9.214;2023-12-22T06:06:38;8.30;99.90
40816;DHT22;26535;48.788;9.214;2023-12-22T06:09:04;8.40;99.90
40816;DHT22;26535;48.788;9.214;2023-12-22T06:14:45;8.50;99.90
40816;DHT22;26535;48.788;9.214;2023-12-22T06:17:10;8.60;99.90
40816;DHT22;26535;48.788;9.214;2023-12-22T06:19:36;8.70;99.90
40816;DHT22;26535;48.788;9.214;2023-12-22T06:22:08;8.60;99.90
40816;DHT22;26535;48.788;9.214;2023-12-22T06:24:39;8.70;99.90
40816;DHT22;26535;48.788;9.214;2023-12-22T06:27:11;8.60;99.90
40816;DHT22;26535;48.788;9.214;2023-12-22T06:29:40;8.50;99.90
40816;DHT22;26535;48.788;9.214;2023-12-22T06:32:31;8.60;99.90
40816;DHT22;26535;48.788;9.214;2023-12-22T06:35:19;8.60;99.90
40816;DHT22;26535;48.788;9.214;2023-12-22T06:37:50;8.70;99.90
40816;DHT22;26535;48.788;9.214;2023-12-22T06:40:20;8.70;99.90
40816;DHT22;26535;48.788;9.214;2023-12-22T06:42:46;8.70;99.90
40816;DHT22;26535;48.788;9.214;2023-12-22T06:48:37;8.60;99.90
40816;DHT22;26535;48.788;9.214;2023-12-22T06:51:26;8.60;99.90
40816;DHT22;26535;48.788;9.214;2023-12-22T06:53:53;8.70;99.90
40816;DHT22;26535;48.788;9.214;2023-12-22T06:56:41;8.70;99.90
40816;DHT22;26535;48.788;9.214;2023-12-22T06:59:07;8.80;99.90
40816;DHT22;26535;48.788;9.214;2023-12-22T07:01:35;8.80;99.90
40816;DHT22;26535;48.788;9.214;2023-12-22T07:04:03;8.80;99.90
40816;DHT22;26535;48.788;9.214;2023-12-22T07:06:33;8.80;99.90
40816;DHT22;26535;48.788;9.214;2023-12-22T07:11:42;8.80;99.90
40816;DHT22;26535;48.788;9.214;2023-12-22T07:14:08;8.70;99.90
40816;DHT22;26535;48.788;9.214;2023-12-22T07:16:43;8.60;99.90
40816;DHT22;26535;48.788;9.214;2023-12-22T07:19:09;8.70;99.90
40816;DHT22;26535;48.788;9.214;2023-12-22T07:21:40;8.70;99.90
40816;DHT22;26535;48.788;9.214;2023-12-22T07:24:11;8.70;99.90
40816;DHT22;26535;48.788;9.214;2023-12-22T07:26:37;8.60;99.90
40816;DHT22;26535;48.788;9.214;2023-12-22T07:29:12;8.70;99.90
40816;DHT22;26535;48.788;9.214;2023-12-22T07:32:00;8.70;99.90
40816;DHT22;26535;48.788;9.214;2023-12-22T07:34:26;8.60;99.90
40816;DHT22;26535;48.788;9.214;2023-12-22T07:36:52;8.50;99.90
40816;DHT22;26535;48.788;9.214;2023-12-22T07:39:28;8.50;99.90
40816;DHT22;26535;48.788;9.214;2023-12-22T07:41:54;8.50;99.90
40816;DHT22;26535;48.788;9.214;2023-12-22T07:44:19;8.60;99.90
40816;DHT22;26535;48.788;9.214;2023-12-22T07:47:11;8.60;99.90
40816;DHT22;26535;48.788;9.214;2023-12-22T07:49:36;8.70;99.90
40816;DHT22;26535;48.788;9.214;2023-12-22T07:52:02;8.60;99.90
40816;DHT22;26535;48.788;9.214;2023-12-22T07:54:28;8.60;99.90
40816;DHT22;26535;48.788;9.214;2023-12-22T07:56:54;8.60;99.90
40816;DHT22;26535;48.788;9.214;2023-12-22T07:59:19;8.60;99.90
40816;DHT22;26535;48.788;9.214;2023-12-22T08:01:45;8.60;99.90
40816;DHT22;26535;48.788;9.214;2023-12-22T08:04:11;8.60;99.90
40816;DHT22;26535;48.788;9.214;2023-12-22T08:06:36;8.50;99.90
40816;DHT22;26535;48.788;9.214;2023-12-22T08:09:05;8.40;99.90
40816;DHT22;26535;48.788;9.214;2023-12-22T08:11:31;8.20;99.90
40816;DHT22;26535;48.788;9.214;2023-12-22T08:13:57;8.00;99.90
40816;DHT22;26535;48.788;9.214;2023-12-22T08:16:23;7.70;99.90
40816;DHT22;26535;48.788;9.214;2023-12-22T08:19:32;7.50;99.90
40816;DHT22;26535;48.788;9.214;2023-12-22T08:21:58;7.30;99.90
40816;DHT22;26535;48.788;9.214;2023-12-22T08:24:24;7.20;99.90
40816;DHT22;26535;48.788;9.214;2023-12-22T08:26:50;7.20;99.90
40816;DHT22;26535;48.788;9.214;2023-12-22T08:29:28;7.10;99.90
40816;DHT22;26535;48.788;9.214;2023-12-22T08:32:06;7.00;99.90
40816;DHT22;26535;48.788;9.214;2023-12-22T08:56:47;7.40;99.90
40816;DHT22;26535;48.788;9.214;2023-12-22T09:06:49;7.60;99.90
40816;DHT22;26535;48.788;9.214;2023-12-22T09:09:59;7.70;99.90
40816;DHT22;26535;48.788;9.214;2023-12-22T09:12:53;7.70;99.90
40816;DHT22;26535;48.788;9.214;2023-12-22T09:15:19;7.80;99.90
40816;DHT22;26535;48.788;9.214;2023-12-22T09:17:57;7.90;99.90
40816;DHT22;26535;48.788;9.214;2023-12-22T09:20:32;7.90;99.90
40816;DHT22;26535;48.788;9.214;2023-12-22T09:22:58;8.00;99.90
40816;DHT22;26535;48.788;9.214;2023-12-22T09:25:32;8.10;99.90
40816;DHT22;26535;48.788;9.214;2023-12-22T09:28:11;8.10;99.90
40816;DHT22;26535;48.788;9.214;2023-12-22T09:30:40;8.10;99.90
40816;DHT22;26535;48.788;9.214;2023-12-22T09:33:08;8.20;99.90
40816;DHT22;26535;48.788;9.214;2023-12-22T09:35:41;8.40;99.90
40816;DHT22;26535;48.788;9.214;2023-12-22T09:38:56;8.50;99.90
40816;DHT22;26535;48.788;9.214;2023-12-22T09:41:28;8.60;99.90
40816;DHT22;26535;48.788;9.214;2023-12-22T09:43:57;8.70;99.90
40816;DHT22;26535;48.788;9.214;2023-12-22T09:47:15;8.80;99.90
40816;DHT22;26535;48.788;9.214;2023-12-22T09:49:47;8.90;99.90
40816;DHT22;26535;48.788;9.214;2023-12-22T09:52:31;8.90;99.90
40816;DHT22;26535;48.788;9.214;2023-12-22T09:55:12;8.90;99.90
40816;DHT22;26535;48.788;9.214;2023-12-22T09:57:45;8.90;99.90
40816;DHT22;26535;48.788;9.214;2023-12-22T10:00:55;9.00;99.90
40816;DHT22;26535;48.788;9.214;2023-12-22T10:03:33;9.00;99.90
40816;DHT22;26535;48.788;9.214;2023-12-22T10:06:10;9.00;99.90
40816;DHT22;26535;48.788;9.214;2023-12-22T10:08:46;9.00;99.90
40816;DHT22;26535;48.788;9.214;2023-12-22T10:11:43;9.10;99.90
40816;DHT22;26535;48.788;9.214;2023-12-22T10:14:09;9.10;99.90
40816;DHT22;26535;48.788;9.214;2023-12-22T10:16:36;9.10;99.90
40816;DHT22;26535;48.788;9.214;2023-12-22T10:19:05;9.10;99.90
40816;DHT22;26535;48.788;9.214;2023-12-22T10:21:41;9.10;99.90
40816;DHT22;26535;48.788;9.214;2023-12-22T10:24:07;9.10;99.90
40816;DHT22;26535;48.788;9.214;2023-12-22T10:26:42;9.20;99.90
40816;DHT22;26535;48.788;9.214;2023-12-22T10:29:08;9.20;99.90
40816;DHT22;26535;48.788;9.214;2023-12-22T10:31:40;9.20;99.90
40816;DHT22;26535;48.788;9.214;2023-12-22T10:34:06;9.20;99.90
40816;DHT22;26535;48.788;9.214;2023-12-22T10:36:38;9.30;99.90
40816;DHT22;26535;48.788;9.214;2023-12-22T10:39:03;9.40;99.90
40816;DHT22;26535;48.788;9.214;2023-12-22T10:41:38;9.40;99.90
40816;DHT22;26535;48.788;9.214;2023-12-22T10:44:29;9.40;99.90
40816;DHT22;26535;48.788;9.214;2023-12-22T10:46:56;9.40;99.90
40816;DHT22;26535;48.788;9.214;2023-12-22T10:49:25;9.40;99.90
40816;DHT22;26535;48.788;9.214;2023-12-22T10:51:51;9.40;99.90
40816;DHT22;26535;48.788;9.214;2023-12-22T10:54:18;9.40;99.90
40816;DHT22;26535;48.788;9.214;2023-12-22T10:56:44;9.40;99.90
40816;DHT22;26535;48.788;9.214;2023-12-22T10:59:23;9.40;99.90
40816;DHT22;26535;48.788;9.214;2023-12-22T11:02:18;9.40;99.90
40816;DHT22;26535;48.788;9.214;2023-12-22T11:05:03;9.30;99.90
40816;DHT22;26535;48.788;9.214;2023-12-22T11:07:55;9.30;99.90
40816;DHT22;26535;48.788;9.214;2023-12-22T11:10:27;9.20;99.90
40816;DHT22;26535;48.788;9.214;2023-12-22T11:12:57;9.30;99.90
40816;DHT22;26535;48.788;9.214;2023-12-22T11:15:27;9.20;99.90
40816;DHT22;26535;48.788;9.214;2023-12-22T11:17:58;9.10;99.90
40816;DHT22;26535;48.788;9.214;2023-12-22T11:20:28;9.00;99.90
40816;DHT22;26535;48.788;9.214;2023-12-22T11:22:59;9.00;99.90
40816;DHT22;26535;48.788;9.214;2023-12-22T11:25:28;9.00;99.90
40816;DHT22;26535;48.788;9.214;2023-12-22T11:27:55;8.90;99.90
40816;DHT22;26535;48.788;9.214;2023-12-22T11:30:39;8.80;99.90
40816;DHT22;26535;48.788;9.214;2023-12-22T11:33:05;8.70;99.90
40816;DHT22;26535;48.788;9.214;2023-12-22T11:35:33;8.60;99.90
40816;DHT22;26535;48.788;9.214;2023-12-22T11:38:04;8.40;99.90
40816;DHT22;26535;48.788;9.214;2023-12-22T11:40:53;8.40;99.90
40816;DHT22;26535;48.788;9.214;2023-12-22T11:43:28;8.30;99.90
40816;DHT22;26535;48.788;9.214;2023-12-22T11:46:02;8.30;99.90
40816;DHT22;26535;48.788;9.214;2023-12-22T11:48:48;8.30;99.90
40816;DHT22;26535;48.788;9.214;2023-12-22T11:51:14;8.20;99.90
40816;DHT22;26535;48.788;9.214;2023-12-22T11:57:35;8.00;99.90
40816;DHT22;26535;48.788;9.214;2023-12-22T12:00:42;7.90;99.90
40816;DHT22;26535;48.788;9.214;2023-12-22T12:03:23;7.90;99.90
40816;DHT22;26535;48.788;9.214;2023-12-22T12:05:48;7.80;99.90
40816;DHT22;26535;48.788;9.214;2023-12-22T12:08:34;7.80;99.90
40816;DHT22;26535;48.788;9.214;2023-12-22T12:11:03;7.80;99.90
40816;DHT22;26535;48.788;9.214;2023-12-22T12:13:31;7.80;99.90
40816;DHT22;26535;48.788;9.214;2023-12-22T12:16:39;7.80;99.90
40816;DHT22;26535;48.788;9.214;2023-12-22T12:19:14;7.90;99.90
40816;DHT22;26535;48.788;9.214;2023-12-22T12:21:55;7.80;99.90
40816;DHT22;26535;48.788;9.214;2023-12-22T12:24:28;7.80;99.90
40816;DHT22;26535;48.788;9.214;2023-12-22T12:26:54;7.90;99.90
40816;DHT22;26535;48.788;9.214;2023-12-22T12:29:32;7.90;99.90
40816;DHT22;26535;48.788;9.214;2023-12-22T12:32:14;7.90;99.90
40816;DHT22;26535;48.788;9.214;2023-12-22T12:34:49;8.00;99.90
40816;DHT22;26535;48.788;9.214;2023-12-22T12:37:46;8.00;99.90
40816;DHT22;26535;48.788;9.214;2023-12-22T12:40:34;8.00;99.90
40816;DHT22;26535;48.788;9.214;2023-12-22T12:43:36;8.00;99.90
40816;DHT22;26535;48.788;9.214;2023-12-22T12:46:42;8.00;99.90
40816;DHT22;26535;48.788;9.214;2023-12-22T12:49:46;8.00;99.90
40816;DHT22;26535;48.788;9.214;2023-12-22T13:02:34;8.10;99.90
40816;DHT22;26535;48.788;9.214;2023-12-22T13:05:32;8.10;99.90
40816;DHT22;26535;48.788;9.214;2023-12-22T13:08:11;8.10;99.90
40816;DHT22;26535;48.788;9.214;2023-12-22T13:10:38;8.20;99.90
40816;DHT22;26535;48.788;9.214;2023-12-22T13:13:23;8.20;99.90
40816;DHT22;26535;48.788;9.214;2023-12-22T13:15:54;8.30;99.90
40816;DHT22;26535;48.788;9.214;2023-12-22T13:18:32;8.30;99.90
40816;DHT22;26535;48.788;9.214;2023-12-22T13:20:58;8.50;99.90
40816;DHT22;26535;48.788;9.214;2023-12-22T13:23:28;8.50;99.90
40816;DHT22;26535;48.788;9.214;2023-12-22T13:25:54;8.60;99.90
40816;DHT22;26535;48.788;9.214;2023-12-22T13:28:28;8.70;99.90
40816;DHT22;26535;48.788;9.214;2023-12-22T13:30:55;8.80;99.90
40816;DHT22;26535;48.788;9.214;2023-12-22T13:33:40;8.90;99.90
40816;DHT22;26535;48.788;9.214;2023-12-22T13:36:06;9.00;99.90
40816;DHT22;26535;48.788;9.214;2023-12-22T13:38:36;9.20;99.90
40816;DHT22;26535;48.788;9.214;2023-12-22T13:41:02;9.50;99.90
40816;DHT22;26535;48.788;9.214;2023-12-22T13:43:30;9.60;99.90
40816;DHT22;26535;48.788;9.214;2023-12-22T13:46:17;9.70;99.90
40816;DHT22;26535;48.788;9.214;2023-12-22T13:48:46;9.80;99.90
40816;DHT22;26535;48.788;9.214;2023-12-22T13:51:12;9.80;99.90
40816;DHT22;26535;48.788;9.214;2023-12-22T13:53:49;9.80;99.90
40816;DHT22;26535;48.788;9.214;2023-12-22T13:56:35;10.00;99.90
40816;DHT22;26535;48.788;9.214;2023-12-22T13:59:02;10.00;99.90
40816;DHT22;26535;48.788;9.214;2023-12-22T14:01:47;10.10;99.90
40816;DHT22;26535;48.788;9.214;2023-12-22T14:04:13;10.10;99.90
40816;DHT22;26535;48.788;9.214;2023-12-22T14:06:39;10.20;99.90
40816;DHT22;26535;48.788;9.214;2023-12-22T14:09:13;10.20;99.90
40816;DHT22;26535;48.788;9.214;2023-12-22T14:11:50;10.20;99.90
40816;DHT22;26535;48.788;9.214;2023-12-22T14:17:28;10.30;99.90
40816;DHT22;26535;48.788;9.214;2023-12-22T14:20:00;10.30;99.90
40816;DHT22;26535;48.788;9.214;2023-12-22T14:22:25;10.30;99.90
40816;DHT22;26535;48.788;9.214;2023-12-22T14:24:52;10.30;99.90
40816;DHT22;26535;48.788;9.214;2023-12-22T14:27:23;10.30;99.90
40816;DHT22;26535;48.788;9.214;2023-12-22T14:29:49;10.40;99.90
40816;DHT22;26535;48.788;9.214;2023-12-22T14:32:17;10.40;99.90
40816;DHT22;26535;48.788;9.214;2023-12-22T14:34:53;10.40;99.90
40816;DHT22;26535;48.788;9.214;2023-12-22T14:37:25;10.40;99.90
40816;DHT22;26535;48.788;9.214;2023-12-22T14:43:18;10.30;99.90
40816;DHT22;26535;48.788;9.214;2023-12-22T14:45:43;10.40;99.90
40816;DHT22;26535;48.788;9.214;2023-12-22T14:48:30;10.40;99.90
40816;DHT22;26535;48.788;9.214;2023-12-22T14:50:56;10.40;99.90
40816;DHT22;26535;48.788;9.214;2023-12-22T14:53:30;10.50;99.90
40816;DHT22;26535;48.788;9.214;2023-12-22T14:55:59;10.50;99.90
40816;DHT22;26535;48.788;9.214;2023-12-22T14:58:24;10.60;99.90
40816;DHT22;26535;48.788;9.214;2023-12-22T15:00:59;10.60;99.90
40816;DHT22;26535;48.788;9.214;2023-12-22T15:03:40;10.60;99.90
40816;DHT22;26535;48.788;9.214;2023-12-22T15:06:06;10.60;99.90
40816;DHT22;26535;48.788;9.214;2023-12-22T15:09:09;10.60;99.90
40816;DHT22;26535;48.788;9.214;2023-12-22T15:11:45;10.60;99.90
40816;DHT22;26535;48.788;9.214;2023-12-22T15:17:20;10.60;99.90
40816;DHT22;26535;48.788;9.214;2023-12-22T15:20:04;10.60;99.90
40816;DHT22;26535;48.788;9.214;2023-12-22T15:22:40;10.50;99.90
40816;DHT22;26535;48.788;9.214;2023-12-22T15:25:15;10.50;99.90
40816;DHT22;26535;48.788;9.214;2023-12-22T15:27:44;10.50;99.90
40816;DHT22;26535;48.788;9.214;2023-12-22T15:30:20;10.50;99.90
40816;DHT22;26535;48.788;9.214;2023-12-22T15:32:53;10.50;99.90
40816;DHT22;26535;48.788;9.214;2023-12-22T15:35:18;10.50;99.90
40816;DHT22;26535;48.788;9.214;2023-12-22T15:38:15;10.60;99.90
40816;DHT22;26535;48.788;9.214;2023-12-22T15:40:53;10.50;99.90
40816;DHT22;26535;48.788;9.214;2023-12-22T15:46:24;10.60;99.90
40816;DHT22;26535;48.788;9.214;2023-12-22T15:48:49;10.50;99.90
40816;DHT22;26535;48.788;9.214;2023-12-22T15:51:21;10.60;99.90
40816;DHT22;26535;48.788;9.214;2023-12-22T15:53:46;10.70;99.90
40816;DHT22;26535;48.788;9.214;2023-12-22T15:56:21;10.70;99.90
40816;DHT22;26535;48.788;9.214;2023-12-22T15:58:50;10.70;99.90
40816;DHT22;26535;48.788;9.214;2023-12-22T16:01:18;10.70;99.90
40816;DHT22;26535;48.788;9.214;2023-12-22T16:03:47;10.70;99.90
40816;DHT22;26535;48.788;9.214;2023-12-22T16:06:31;10.70;99.90
40816;DHT22;26535;48.788;9.214;2023-12-22T16:09:01;10.70;99.90
40816;DHT22;26535;48.788;9.214;2023-12-22T16:11:30;10.70;99.90
40816;DHT22;26535;48.788;9.214;2023-12-22T16:13:57;10.80;99.90
40816;DHT22;26535;48.788;9.214;2023-12-22T16:16:23;10.80;99.90
40816;DHT22;26535;48.788;9.214;2023-12-22T16:18:49;10.80;99.90
40816;DHT22;26535;48.788;9.214;2023-12-22T16:21:14;10.80;99.90
40816;DHT22;26535;48.788;9.214;2023-12-22T16:23:40;10.90;99.90
40816;DHT22;26535;48.788;9.214;2023-12-22T16:26:06;10.90;99.90
40816;DHT22;26535;48.788;9.214;2023-12-22T16:28:33;10.80;99.90
40816;DHT22;26535;48.788;9.214;2023-12-22T16:31:09;10.80;99.90
40816;DHT22;26535;48.788;9.214;2023-12-22T16:33:35;10.80;99.90
40816;DHT22;26535;48.788;9.214;2023-12-22T16:36:01;10.80;99.90
40816;DHT22;26535;48.788;9.214;2023-12-22T16:38:27;10.80;99.90
40816;DHT22;26535;48.788;9.214;2023-12-22T16:40:53;10.80;99.90
40816;DHT22;26535;48.788;9.214;2023-12-22T16:43:18;10.80;99.90
40816;DHT22;26535;48.788;9.214;2023-12-22T16:45:44;10.80;99.90
40816;DHT22;26535;48.788;9.214;2023-12-22T16:48:13;10.80;99.90
40816;DHT22;26535;48.788;9.214;2023-12-22T16:50:45;10.80;99.90
40816;DHT22;26535;48.788;9.214;2023-12-22T16:53:10;10.80;99.90
40816;DHT22;26535;48.788;9.214;2023-12-22T16:55:36;10.80;99.90
40816;DHT22;26535;48.788;9.214;2023-12-22T16:58:05;10.70;99.90
40816;DHT22;26535;48.788;9.214;2023-12-22T17:00:31;10.70;99.90
40816;DHT22;26535;48.788;9.214;2023-12-22T17:02:56;10.80;99.90
40816;DHT22;26535;48.788;9.214;2023-12-22T17:05:22;10.80;99.90
40816;DHT22;26535;48.788;9.214;2023-12-22T17:07:48;10.70;99.90
40816;DHT22;26535;48.788;9.214;2023-12-22T17:10:16;10.80;99.90
40816;DHT22;26535;48.788;9.214;2023-12-22T17:12:42;10.80;99.90
40816;DHT22;26535;48.788;9.214;2023-12-22T17:15:08;10.70;99.90
40816;DHT22;26535;48.788;9.214;2023-12-22T17:17:35;10.70;99.90
40816;DHT22;26535;48.788;9.214;2023-12-22T17:20:01;10.80;99.90
40816;DHT22;26535;48.788;9.214;2023-12-22T17:22:28;10.70;99.90
40816;DHT22;26535;48.788;9.214;2023-12-22T17:24:54;10.80;99.90
40816;DHT22;26535;48.788;9.214;2023-12-22T17:27:20;10.70;99.90
40816;DHT22;26535;48.788;9.214;2023-12-22T17:29:46;10.70;99.90
40816;DHT22;26535;48.788;9.214;2023-12-22T17:32:11;10.70;99.90
40816;DHT22;26535;48.788;9.214;2023-12-22T17:34:37;10.70;99.90